Time;durP1;ratioP1;P1;durP2;ratioP2;P2;SDS_P1;SDS_P2;PMS_P1;PMS_P2;Temp;Humidity;BMP_temperature;BMP_pressure;BME280_temperature;BME280_humidity;BME280_pressure;Samples;Min_cycle;Max_cycle;Signal;HPM_P1;HPM_P2
2021/01/20 00:01:08;;;;;;;6.80;2.08;;;;;;;;;;5068960;28;20066;-67
2021/01/20 00:03:33;;;;;;;4.18;2.28;;;;;;;;;;5068376;28;20265;-67
2021/01/20 00:05:58;;;;;;;3.45;1.98;;;;;;;;;;5067774;28;20038;-67
2021/01/20 00:08:24;;;;;;;4.97;1.60;;;;;;;;;;5068730;28;20039;-67
2021/01/20 00:10:49;;;;;;;2.08;1.40;;;;;;;;;;5050481;28;20782;-67
2021/01/20 00:13:15;;;;;;;13.85;3.00;;;;;;;;;;5067541;28;20131;-67
2021/01/20 00:15:41;;;;;;;6.97;2.17;;;;;;;;;;5067568;28;20827;-67
2021/01/20 00:18:06;;;;;;;5.10;1.85;;;;;;;;;;5067587;28;20028;-67
2021/01/20 00:20:31;;;;;;;10.70;2.53;;;;;;;;;;5068293;28;20544;-67
2021/01/20 00:22:56;;;;;;;12.03;2.10;;;;;;;;;;5068246;28;20262;-67
2021/01/20 00:25:22;;;;;;;4.80;2.20;;;;;;;;;;5067243;28;20255;-67
2021/01/20 00:27:47;;;;;;;16.20;2.05;;;;;;;;;;5067497;28;20263;-66
2021/01/20 00:30:12;;;;;;;9.02;2.65;;;;;;;;;;5067479;28;20020;-67
2021/01/20 00:32:37;;;;;;;8.70;1.95;;;;;;;;;;5069107;28;20032;-67
2021/01/20 00:35:12;;;;;;;5.50;1.73;;;;;;;;;;5067710;28;20021;-67
2021/01/20 00:37:38;;;;;;;11.82;3.55;;;;;;;;;;5068090;28;20302;-67
2021/01/20 00:40:04;;;;;;;8.93;2.50;;;;;;;;;;5067429;28;20021;-67
2021/01/20 00:42:29;;;;;;;9.43;2.05;;;;;;;;;;5067781;28;20035;-67
2021/01/20 00:44:55;;;;;;;13.20;1.40;;;;;;;;;;5068221;28;20020;-67
2021/01/20 00:47:20;;;;;;;8.20;2.90;;;;;;;;;;5068117;28;20026;-67
2021/01/20 00:49:45;;;;;;;8.00;2.05;;;;;;;;;;5068093;28;20262;-67
2021/01/20 00:52:10;;;;;;;6.73;1.17;;;;;;;;;;5068171;28;20111;-67
2021/01/20 00:54:35;;;;;;;13.05;1.40;;;;;;;;;;5064860;28;20778;-67
2021/01/20 00:57:00;;;;;;;5.88;2.10;;;;;;;;;;5066781;28;20039;-67
2021/01/20 00:59:26;;;;;;;5.03;1.57;;;;;;;;;;5066857;28;20052;-66
2021/01/20 01:01:57;;;;;;;4.03;1.13;;;;;;;;;;5067839;28;20263;-67
2021/01/20 01:04:22;;;;;;;5.57;1.40;;;;;;;;;;5066557;28;20277;-66
2021/01/20 01:06:47;;;;;;;7.03;2.03;;;;;;;;;;5067471;28;20028;-66
2021/01/20 01:09:12;;;;;;;3.70;1.60;;;;;;;;;;5067267;28;20302;-67
2021/01/20 01:11:38;;;;;;;18.83;3.60;;;;;;;;;;5067811;28;20274;-66
2021/01/20 01:14:03;;;;;;;7.77;2.17;;;;;;;;;;5066695;28;20273;-66
2021/01/20 01:16:28;;;;;;;20.40;1.17;;;;;;;;;;5067277;28;20665;-66
2021/01/20 01:18:53;;;;;;;6.60;1.45;;;;;;;;;;5066740;28;20263;-66
2021/01/20 01:21:18;;;;;;;5.22;1.85;;;;;;;;;;5067203;28;20051;-67
2021/01/20 01:23:44;;;;;;;4.18;1.90;;;;;;;;;;5067261;28;20032;-66
2021/01/20 01:26:09;;;;;;;4.90;1.97;;;;;;;;;;5066225;28;20020;-67
2021/01/20 01:28:34;;;;;;;4.83;2.03;;;;;;;;;;5067092;28;20642;-67
2021/01/20 01:30:59;;;;;;;8.82;2.42;;;;;;;;;;5066467;28;20270;-67
2021/01/20 01:33:26;;;;;;;5.25;1.85;;;;;;;;;;5066843;28;20385;-67
2021/01/20 01:35:51;;;;;;;9.07;1.85;;;;;;;;;;5066224;28;20271;-67
2021/01/20 01:38:16;;;;;;;3.97;1.53;;;;;;;;;;5066724;28;20074;-66
2021/01/20 01:40:42;;;;;;;5.30;1.87;;;;;;;;;;5067595;28;20279;-66
2021/01/20 01:43:07;;;;;;;3.42;2.15;;;;;;;;;;5065163;28;20258;-66
2021/01/20 01:45:32;;;;;;;8.25;2.20;;;;;;;;;;5065394;28;20028;-66
2021/01/20 01:47:57;;;;;;;4.57;2.08;;;;;;;;;;5066739;28;20023;-66
2021/01/20 01:50:22;;;;;;;4.03;1.77;;;;;;;;;;5066990;28;20374;-67
2021/01/20 01:52:48;;;;;;;2.45;1.02;;;;;;;;;;5066172;28;20407;-67
2021/01/20 01:55:13;;;;;;;3.57;1.93;;;;;;;;;;5065600;28;20040;-67
2021/01/20 01:57:40;;;;;;;6.82;2.55;;;;;;;;;;5065597;28;20304;-67
2021/01/20 02:00:06;;;;;;;2.55;1.63;;;;;;;;;;5065962;28;20582;-66
2021/01/20 02:02:33;;;;;;;3.42;2.28;;;;;;;;;;5067787;28;20028;-66
2021/01/20 02:04:58;;;;;;;6.85;1.92;;;;;;;;;;5064547;28;20119;-66
2021/01/20 02:07:25;;;;;;;6.50;2.13;;;;;;;;;;5066682;28;20080;-67
2021/01/20 02:09:50;;;;;;;9.32;1.40;;;;;;;;;;5065758;28;20473;-67
2021/01/20 02:12:19;;;;;;;6.75;2.17;;;;;;;;;;5066909;28;20042;-66
2021/01/20 02:14:51;;;;;;;3.63;1.40;;;;;;;;;;5064877;28;21761;-67
2021/01/20 02:17:35;;;;;;;8.95;1.98;;;;;;;;;;5065356;28;20017;-66
2021/01/20 02:20:00;;;;;;;5.30;2.13;;;;;;;;;;5065825;28;20017;-67
2021/01/20 02:22:30;;;;;;;3.63;1.42;;;;;;;;;;5066159;28;20094;-66
2021/01/20 02:25:13;;;;;;;7.78;3.15;;;;;;;;;;5065778;28;20039;-67
2021/01/20 02:27:47;;;;;;;3.75;1.88;;;;;;;;;;5065402;28;20029;-66
2021/01/20 02:30:12;;;;;;;5.63;2.33;;;;;;;;;;5065197;28;20025;-66
2021/01/20 02:32:38;;;;;;;3.35;1.83;;;;;;;;;;5064882;28;20665;-67
2021/01/20 02:35:04;;;;;;;11.00;1.83;;;;;;;;;;5064999;28;20121;-66
2021/01/20 02:37:31;;;;;;;4.90;2.70;;;;;;;;;;5066388;28;20032;-66
2021/01/20 02:39:57;;;;;;;20.35;3.33;;;;;;;;;;5065933;28;20025;-67
2021/01/20 02:42:22;;;;;;;6.38;2.15;;;;;;;;;;5067784;28;20012;-67
2021/01/20 02:44:47;;;;;;;8.97;2.70;;;;;;;;;;5070043;28;20020;-67
2021/01/20 02:47:12;;;;;;;4.22;1.85;;;;;;;;;;5071265;28;20265;-67
2021/01/20 02:49:38;;;;;;;10.13;2.45;;;;;;;;;;5069686;28;20465;-66
2021/01/20 02:52:28;;;;;;;4.80;1.92;;;;;;;;;;5070026;28;20362;-66
2021/01/20 02:54:54;;;;;;;3.00;1.25;;;;;;;;;;5068164;28;20062;-66
2021/01/20 02:57:19;;;;;;;7.47;2.03;;;;;;;;;;5068001;28;20032;-66
2021/01/20 02:59:45;;;;;;;3.05;2.05;;;;;;;;;;5069166;28;20622;-67
2021/01/20 03:02:13;;;;;;;4.60;2.13;;;;;;;;;;5068734;28;21894;-67
2021/01/20 03:04:43;;;;;;;3.35;1.70;;;;;;;;;;5069021;28;20484;-67
2021/01/20 03:07:09;;;;;;;6.70;1.98;;;;;;;;;;5069750;28;20461;-67
2021/01/20 03:09:35;;;;;;;4.95;2.50;;;;;;;;;;5069615;28;20117;-66
2021/01/20 03:12:02;;;;;;;5.38;2.58;;;;;;;;;;5068392;28;20028;-67
2021/01/20 03:14:28;;;;;;;2.45;1.13;;;;;;;;;;5069348;28;20028;-66
2021/01/20 03:16:53;;;;;;;2.60;1.40;;;;;;;;;;5071023;28;20035;-67
2021/01/20 03:19:18;;;;;;;3.85;1.95;;;;;;;;;;5070786;28;20013;-67
2021/01/20 03:21:43;;;;;;;7.53;2.10;;;;;;;;;;5069101;28;20032;-67
2021/01/20 03:24:09;;;;;;;7.97;2.30;;;;;;;;;;5069766;28;20255;-66
2021/01/20 03:26:34;;;;;;;3.63;1.75;;;;;;;;;;5068804;28;20012;-67
2021/01/20 03:28:59;;;;;;;5.53;2.10;;;;;;;;;;5069095;28;20457;-67
2021/01/20 03:31:25;;;;;;;3.35;1.40;;;;;;;;;;5068435;28;20270;-67
2021/01/20 03:33:50;;;;;;;4.53;2.10;;;;;;;;;;5068395;28;20095;-67
2021/01/20 03:36:15;;;;;;;2.83;1.15;;;;;;;;;;5069228;28;20051;-67
2021/01/20 03:38:40;;;;;;;8.90;2.42;;;;;;;;;;5068949;28;20070;-67
2021/01/20 03:41:06;;;;;;;5.45;1.58;;;;;;;;;;5067744;28;20021;-67
2021/01/20 03:43:31;;;;;;;3.35;2.22;;;;;;;;;;5069915;28;20037;-67
2021/01/20 03:45:56;;;;;;;5.88;3.13;;;;;;;;;;5068522;28;20067;-67
2021/01/20 03:48:21;;;;;;;5.68;2.03;;;;;;;;;;5068754;28;20032;-67
2021/01/20 03:50:46;;;;;;;5.57;2.37;;;;;;;;;;5068168;28;20063;-67
2021/01/20 03:53:11;;;;;;;5.10;2.45;;;;;;;;;;5067650;28;20287;-67
2021/01/20 03:55:37;;;;;;;6.20;3.40;;;;;;;;;;5067991;28;20024;-67
2021/01/20 03:58:02;;;;;;;7.32;2.05;;;;;;;;;;5068532;28;20279;-67
2021/01/20 04:00:27;;;;;;;8.05;1.80;;;;;;;;;;5068549;28;20028;-67
2021/01/20 04:02:52;;;;;;;4.90;1.73;;;;;;;;;;5068837;28;20027;-67
2021/01/20 04:05:17;;;;;;;6.53;2.77;;;;;;;;;;5068230;28;20028;-67
2021/01/20 04:07:43;;;;;;;3.40;1.40;;;;;;;;;;5068763;28;20346;-67
2021/01/20 04:10:08;;;;;;;3.60;1.80;;;;;;;;;;5067824;28;20289;-67
2021/01/20 04:12:37;;;;;;;6.28;2.10;;;;;;;;;;5051884;28;20279;-67
2021/01/20 04:15:06;;;;;;;4.53;1.67;;;;;;;;;;5067492;28;20514;-67
2021/01/20 04:17:32;;;;;;;8.10;2.37;;;;;;;;;;5066765;28;20029;-67
2021/01/20 04:19:57;;;;;;;7.47;2.00;;;;;;;;;;5066051;28;20020;-67
2021/01/20 04:22:23;;;;;;;5.93;3.03;;;;;;;;;;5066969;28;20024;-67
2021/01/20 04:24:48;;;;;;;3.97;1.58;;;;;;;;;;5067436;28;20365;-67
2021/01/20 04:27:13;;;;;;;4.60;2.20;;;;;;;;;;5069290;28;20319;-67
2021/01/20 04:29:38;;;;;;;5.83;1.70;;;;;;;;;;5067156;28;21783;-67
2021/01/20 04:32:03;;;;;;;5.10;1.93;;;;;;;;;;5068477;28;20346;-67
2021/01/20 04:34:28;;;;;;;5.53;2.50;;;;;;;;;;5067892;28;20288;-67
2021/01/20 04:36:54;;;;;;;4.93;2.00;;;;;;;;;;5066683;28;20055;-67
2021/01/20 04:39:19;;;;;;;4.45;2.05;;;;;;;;;;5066050;28;20674;-67
2021/01/20 04:41:44;;;;;;;8.00;2.50;;;;;;;;;;5068457;28;20019;-67
2021/01/20 04:44:09;;;;;;;6.43;2.83;;;;;;;;;;5067236;28;20416;-67
2021/01/20 04:46:35;;;;;;;3.55;2.05;;;;;;;;;;5067745;28;20485;-67
2021/01/20 04:49:00;;;;;;;4.57;2.10;;;;;;;;;;5067499;28;20077;-67
2021/01/20 04:51:26;;;;;;;4.30;2.00;;;;;;;;;;5068313;28;20113;-67
2021/01/20 04:53:53;;;;;;;7.90;2.88;;;;;;;;;;5065407;28;20032;-67
2021/01/20 04:56:19;;;;;;;2.08;1.48;;;;;;;;;;5066864;28;20048;-67
2021/01/20 04:58:44;;;;;;;4.15;2.55;;;;;;;;;;5067298;28;20043;-67
2021/01/20 05:01:10;;;;;;;5.53;3.10;;;;;;;;;;5067115;28;20028;-67
2021/01/20 05:03:35;;;;;;;8.38;2.90;;;;;;;;;;5066793;28;20051;-67
2021/01/20 05:06:00;;;;;;;5.82;3.15;;;;;;;;;;5067333;28;20103;-67
2021/01/20 05:08:25;;;;;;;1.80;1.15;;;;;;;;;;5065959;28;20032;-67
2021/01/20 05:10:51;;;;;;;4.55;2.72;;;;;;;;;;5062964;28;20480;-67
2021/01/20 05:13:24;;;;;;;6.85;2.80;;;;;;;;;;5063836;28;20188;-67
2021/01/20 05:15:49;;;;;;;9.63;4.25;;;;;;;;;;5062954;28;20054;-67
2021/01/20 05:18:14;;;;;;;4.77;2.47;;;;;;;;;;5063123;28;20497;-67
2021/01/20 05:20:39;;;;;;;3.30;2.27;;;;;;;;;;5063721;28;20255;-67
2021/01/20 05:23:05;;;;;;;7.15;2.75;;;;;;;;;;5063801;28;20281;-67
2021/01/20 05:25:32;;;;;;;2.95;1.83;;;;;;;;;;5064456;28;20437;-67
2021/01/20 05:27:58;;;;;;;5.22;1.73;;;;;;;;;;5064442;28;20029;-67
2021/01/20 05:30:23;;;;;;;5.35;1.95;;;;;;;;;;5063536;28;20534;-67
2021/01/20 05:32:55;;;;;;;8.48;2.50;;;;;;;;;;5063224;28;20104;-67
2021/01/20 05:35:20;;;;;;;6.10;2.88;;;;;;;;;;5061916;28;20060;-67
2021/01/20 05:37:46;;;;;;;6.53;3.17;;;;;;;;;;5061342;28;20626;-67
2021/01/20 05:40:13;;;;;;;6.50;3.28;;;;;;;;;;5063895;28;20134;-67
2021/01/20 05:42:51;;;;;;;5.70;2.58;;;;;;;;;;5065930;28;20062;-67
2021/01/20 05:45:18;;;;;;;3.13;1.88;;;;;;;;;;5064670;28;20059;-67
2021/01/20 05:48:02;;;;;;;6.50;1.85;;;;;;;;;;5066523;28;20024;-67
2021/01/20 05:50:27;;;;;;;5.05;1.85;;;;;;;;;;5062182;28;20110;-67
2021/01/20 05:53:05;;;;;;;4.47;2.47;;;;;;;;;;5061488;28;20028;-67
2021/01/20 05:55:30;;;;;;;7.82;2.38;;;;;;;;;;5062087;28;20040;-67
2021/01/20 05:57:56;;;;;;;2.80;1.60;;;;;;;;;;5063562;28;20074;-67
2021/01/20 06:00:21;;;;;;;4.90;1.95;;;;;;;;;;5063327;28;20029;-67
2021/01/20 06:02:47;;;;;;;5.20;2.58;;;;;;;;;;5063234;28;20047;-67
2021/01/20 06:05:13;;;;;;;6.88;2.88;;;;;;;;;;5065510;28;20029;-67
2021/01/20 06:07:38;;;;;;;2.40;1.60;;;;;;;;;;5066632;28;20430;-67
2021/01/20 06:10:03;;;;;;;6.50;2.35;;;;;;;;;;5065835;28;20234;-67
2021/01/20 06:12:29;;;;;;;3.30;1.88;;;;;;;;;;5066269;28;20483;-67
2021/01/20 06:14:54;;;;;;;4.53;1.83;;;;;;;;;;5063183;28;20027;-67
2021/01/20 06:17:30;;;;;;;2.25;1.58;;;;;;;;;;5062220;28;20741;-67
2021/01/20 06:19:57;;;;;;;4.65;2.25;;;;;;;;;;5062575;28;20040;-67
2021/01/20 06:22:23;;;;;;;3.00;1.67;;;;;;;;;;5063439;28;20024;-67
2021/01/20 06:24:49;;;;;;;3.00;2.15;;;;;;;;;;5062907;28;20044;-67
2021/01/20 06:27:36;;;;;;;3.63;2.08;;;;;;;;;;5061761;28;20511;-67
2021/01/20 06:30:05;;;;;;;4.30;1.98;;;;;;;;;;5064277;28;20025;-67
2021/01/20 06:32:30;;;;;;;3.05;1.98;;;;;;;;;;5062912;28;20250;-67
2021/01/20 06:34:56;;;;;;;2.45;1.30;;;;;;;;;;5063069;28;20039;-69
2021/01/20 06:37:36;;;;;;;5.00;2.30;;;;;;;;;;5062993;28;20034;-67
2021/01/20 06:40:03;;;;;;;2.75;1.20;;;;;;;;;;5063465;28;20516;-67
2021/01/20 06:42:30;;;;;;;2.50;1.60;;;;;;;;;;5061928;28;20033;-67
2021/01/20 06:45:14;;;;;;;7.45;2.38;;;;;;;;;;5065083;28;20035;-67
2021/01/20 06:47:58;;;;;;;5.03;2.08;;;;;;;;;;5076128;28;20035;-67
2021/01/20 06:50:23;;;;;;;5.72;2.38;;;;;;;;;;5067194;28;20046;-67
2021/01/20 06:53:07;;;;;;;7.47;1.70;;;;;;;;;;5066423;28;20024;-67
2021/01/20 06:55:34;;;;;;;3.45;2.22;;;;;;;;;;5065106;28;20124;-67
2021/01/20 06:58:18;;;;;;;5.30;1.98;;;;;;;;;;5068353;28;20036;-67
2021/01/20 07:01:04;;;;;;;5.68;2.22;;;;;;;;;;5067515;28;20570;-67
2021/01/20 07:03:42;;;;;;;4.55;1.75;;;;;;;;;;5067831;28;20081;-67
2021/01/20 07:06:27;;;;;;;6.45;2.63;;;;;;;;;;5066871;28;20043;-67
2021/01/20 07:08:52;;;;;;;3.95;1.90;;;;;;;;;;5058844;28;20041;-67
2021/01/20 07:11:18;;;;;;;5.63;1.27;;;;;;;;;;5064216;28;20028;-67
2021/01/20 07:13:43;;;;;;;3.60;2.05;;;;;;;;;;5061358;28;20397;-67
2021/01/20 07:16:10;;;;;;;3.10;1.70;;;;;;;;;;5061138;28;20469;-67
2021/01/20 07:18:37;;;;;;;6.85;2.13;;;;;;;;;;5062239;28;20082;-67
2021/01/20 07:21:04;;;;;;;3.75;2.67;;;;;;;;;;5062659;28;20044;-67
2021/01/20 07:23:30;;;;;;;9.73;2.42;;;;;;;;;;5063583;28;20021;-67
2021/01/20 07:25:55;;;;;;;4.22;1.38;;;;;;;;;;5064881;28;20091;-67
2021/01/20 07:28:21;;;;;;;2.03;1.23;;;;;;;;;;5093298;22;20516;-66
2021/01/20 07:30:46;;;;;;;4.10;1.58;;;;;;;;;;5092928;28;20020;-66
2021/01/20 07:33:15;;;;;;;5.10;1.77;;;;;;;;;;5093730;28;20016;-67
2021/01/20 07:35:40;;;;;;;4.60;2.10;;;;;;;;;;5093118;28;20028;-66
2021/01/20 07:38:06;;;;;;;4.97;2.28;;;;;;;;;;5077589;28;20434;-66
2021/01/20 07:40:32;;;;;;;7.78;2.28;;;;;;;;;;5072988;28;20091;-65
2021/01/20 07:42:58;;;;;;;3.15;1.80;;;;;;;;;;5072415;28;20032;-66
2021/01/20 07:45:31;;;;;;;6.00;2.63;;;;;;;;;;5067002;28;20016;-66
2021/01/20 07:47:56;;;;;;;6.45;2.17;;;;;;;;;;5071945;28;20360;-65
2021/01/20 07:50:34;;;;;;;5.63;2.20;;;;;;;;;;5070539;28;20024;-66
2021/01/20 07:52:59;;;;;;;2.72;1.27;;;;;;;;;;5071162;28;20263;-65
2021/01/20 07:55:24;;;;;;;6.03;2.00;;;;;;;;;;5072074;28;20024;-65
2021/01/20 07:57:54;;;;;;;4.28;2.40;;;;;;;;;;5070282;28;20020;-65
2021/01/20 08:00:20;;;;;;;6.10;1.80;;;;;;;;;;5071102;28;20025;-65
2021/01/20 08:02:46;;;;;;;4.32;2.20;;;;;;;;;;5070485;28;20031;-65
2021/01/20 08:05:11;;;;;;;3.10;1.80;;;;;;;;;;5068987;28;20031;-65
2021/01/20 08:07:36;;;;;;;3.38;1.60;;;;;;;;;;5065953;28;20028;-66
2021/01/20 08:10:02;;;;;;;4.60;2.47;;;;;;;;;;5071054;28;20024;-65
2021/01/20 08:12:29;;;;;;;4.70;1.92;;;;;;;;;;5072193;28;20263;-66
2021/01/20 08:14:56;;;;;;;3.97;2.60;;;;;;;;;;5070644;28;20112;-66
2021/01/20 08:17:21;;;;;;;4.55;2.28;;;;;;;;;;5072494;28;20032;-66
2021/01/20 08:19:47;;;;;;;3.25;1.60;;;;;;;;;;5071444;28;20020;-66
2021/01/20 08:22:14;;;;;;;5.53;2.28;;;;;;;;;;5071970;28;20468;-66
2021/01/20 08:24:46;;;;;;;4.53;1.80;;;;;;;;;;5071409;28;20101;-65
2021/01/20 08:27:11;;;;;;;3.50;1.45;;;;;;;;;;5072137;28;20016;-65
2021/01/20 08:29:50;;;;;;;8.23;2.83;;;;;;;;;;5070941;28;20029;-65
2021/01/20 08:32:15;;;;;;;5.35;3.13;;;;;;;;;;5069821;28;20428;-65
2021/01/20 08:34:41;;;;;;;6.63;2.97;;;;;;;;;;5070609;28;20029;-65
2021/01/20 08:37:11;;;;;;;5.78;2.30;;;;;;;;;;5067645;28;20292;-65
2021/01/20 08:39:37;;;;;;;5.63;2.22;;;;;;;;;;5067202;28;20431;-65
2021/01/20 08:42:11;;;;;;;5.32;2.45;;;;;;;;;;5070806;28;20038;-67
2021/01/20 08:44:37;;;;;;;10.13;3.28;;;;;;;;;;5070634;28;20060;-66
2021/01/20 08:47:02;;;;;;;8.27;2.27;;;;;;;;;;5071627;28;20098;-67
2021/01/20 08:49:27;;;;;;;6.35;2.55;;;;;;;;;;5071693;28;20286;-66
2021/01/20 08:51:56;;;;;;;4.93;2.45;;;;;;;;;;5068609;28;20050;-66
2021/01/20 08:54:22;;;;;;;10.07;3.05;;;;;;;;;;5070513;28;20071;-66
2021/01/20 08:56:47;;;;;;;8.95;3.92;;;;;;;;;;5070312;28;20025;-66
2021/01/20 08:59:12;;;;;;;8.50;2.75;;;;;;;;;;5070528;28;20017;-65
2021/01/20 09:01:37;;;;;;;6.88;2.72;;;;;;;;;;5069052;28;20063;-67
2021/01/20 09:04:04;;;;;;;5.50;2.63;;;;;;;;;;5066159;28;20024;-67
2021/01/20 09:06:30;;;;;;;9.20;3.20;;;;;;;;;;5071229;28;20265;-66
2021/01/20 09:08:55;;;;;;;6.22;2.80;;;;;;;;;;5067994;28;20099;-65
2021/01/20 09:11:21;;;;;;;6.40;2.42;;;;;;;;;;5069960;28;20020;-66
2021/01/20 09:13:46;;;;;;;6.38;3.45;;;;;;;;;;5068455;28;20028;-66
2021/01/20 09:16:11;;;;;;;4.70;2.58;;;;;;;;;;5069663;28;20044;-65
2021/01/20 09:18:37;;;;;;;3.85;2.20;;;;;;;;;;5064974;28;20039;-66
2021/01/20 09:21:02;;;;;;;6.75;2.17;;;;;;;;;;5067416;28;20124;-66
2021/01/20 09:23:28;;;;;;;5.03;2.30;;;;;;;;;;5069589;28;20026;-67
2021/01/20 09:25:56;;;;;;;3.70;2.30;;;;;;;;;;5071237;28;20537;-66
2021/01/20 09:28:21;;;;;;;7.68;2.50;;;;;;;;;;5066130;28;20040;-66
2021/01/20 09:30:46;;;;;;;4.90;1.85;;;;;;;;;;5070193;28;20409;-66
2021/01/20 09:33:12;;;;;;;4.85;2.28;;;;;;;;;;5065232;28;20021;-65
2021/01/20 09:35:37;;;;;;;4.03;2.42;;;;;;;;;;5068770;28;20024;-66
2021/01/20 09:38:03;;;;;;;4.82;2.78;;;;;;;;;;5067103;28;20028;-66
2021/01/20 09:40:28;;;;;;;5.05;2.17;;;;;;;;;;5067192;28;20024;-65
2021/01/20 09:42:54;;;;;;;7.13;2.60;;;;;;;;;;5068224;28;20021;-66
2021/01/20 09:45:22;;;;;;;8.18;2.92;;;;;;;;;;5069946;28;20069;-66
2021/01/20 09:47:47;;;;;;;4.78;2.10;;;;;;;;;;5069250;28;20021;-65
2021/01/20 09:50:13;;;;;;;4.68;1.85;;;;;;;;;;5064528;28;20036;-66
2021/01/20 09:52:38;;;;;;;4.85;2.15;;;;;;;;;;5069572;28;20033;-66
2021/01/20 09:55:05;;;;;;;5.75;2.15;;;;;;;;;;5068160;28;20032;-66
2021/01/20 09:57:30;;;;;;;6.30;2.35;;;;;;;;;;5069437;28;20052;-64
2021/01/20 09:59:55;;;;;;;5.60;2.50;;;;;;;;;;5069359;28;20082;-66
2021/01/20 10:02:20;;;;;;;8.85;2.83;;;;;;;;;;5069440;28;20271;-64
2021/01/20 10:04:46;;;;;;;2.15;1.45;;;;;;;;;;5067150;28;20024;-66
2021/01/20 10:07:12;;;;;;;3.60;2.20;;;;;;;;;;5070120;28;20016;-65
2021/01/20 10:09:37;;;;;;;4.65;2.05;;;;;;;;;;5066028;28;20477;-65
2021/01/20 10:12:03;;;;;;;3.80;1.95;;;;;;;;;;5069629;28;20046;-65
2021/01/20 10:14:28;;;;;;;4.95;1.60;;;;;;;;;;5069311;28;20020;-65
2021/01/20 10:16:53;;;;;;;3.00;1.40;;;;;;;;;;5066802;28;20176;-65
2021/01/20 10:19:18;;;;;;;8.87;3.17;;;;;;;;;;5053538;28;20696;-65
2021/01/20 10:21:44;;;;;;;5.03;2.35;;;;;;;;;;5068909;28;20278;-65
2021/01/20 10:24:10;;;;;;;6.80;2.20;;;;;;;;;;5069223;28;20534;-64
2021/01/20 10:26:36;;;;;;;2.78;1.70;;;;;;;;;;5069272;28;20516;-65
2021/01/20 10:29:01;;;;;;;6.38;2.70;;;;;;;;;;5070098;28;20028;-65
2021/01/20 10:31:33;;;;;;;3.70;1.85;;;;;;;;;;5070158;28;20044;-65
2021/01/20 10:33:59;;;;;;;7.47;2.00;;;;;;;;;;5066186;28;21529;-66
2021/01/20 10:36:24;;;;;;;3.70;2.35;;;;;;;;;;5069236;28;20047;-68
2021/01/20 10:38:49;;;;;;;4.47;2.67;;;;;;;;;;5062178;28;20095;-64
2021/01/20 10:41:17;;;;;;;13.65;2.88;;;;;;;;;;5068109;28;20027;-65
2021/01/20 10:43:43;;;;;;;5.43;2.53;;;;;;;;;;5066881;28;20032;-65
2021/01/20 10:46:08;;;;;;;6.32;3.00;;;;;;;;;;5066476;28;20309;-66
2021/01/20 10:48:33;;;;;;;10.03;3.87;;;;;;;;;;5067794;28;20070;-66
2021/01/20 10:50:58;;;;;;;6.97;3.90;;;;;;;;;;5066510;28;20271;-66
2021/01/20 10:53:24;;;;;;;7.40;3.13;;;;;;;;;;5067778;28;20338;-67
2021/01/20 10:55:49;;;;;;;5.50;2.70;;;;;;;;;;5065323;28;20401;-67
2021/01/20 10:58:14;;;;;;;6.43;2.43;;;;;;;;;;5067676;28;20314;-66
2021/01/20 11:00:39;;;;;;;6.03;2.10;;;;;;;;;;5066867;28;20259;-67
2021/01/20 11:03:04;;;;;;;4.60;1.80;;;;;;;;;;5071577;28;20331;-66
2021/01/20 11:05:29;;;;;;;4.68;1.77;;;;;;;;;;5071660;28;20282;-66
2021/01/20 11:07:55;;;;;;;3.65;1.50;;;;;;;;;;5070947;28;20031;-67
2021/01/20 11:10:20;;;;;;;9.68;3.45;;;;;;;;;;5066597;28;20493;-66
2021/01/20 11:12:46;;;;;;;6.37;2.47;;;;;;;;;;5069571;28;20472;-67
2021/01/20 11:15:12;;;;;;;3.58;1.77;;;;;;;;;;5068262;28;20316;-66
2021/01/20 11:17:37;;;;;;;3.97;2.05;;;;;;;;;;5070601;28;20471;-66
2021/01/20 11:20:02;;;;;;;7.23;3.00;;;;;;;;;;5070049;28;20012;-66
2021/01/20 11:22:27;;;;;;;6.15;2.35;;;;;;;;;;5071539;28;20389;-65
2021/01/20 11:25:00;;;;;;;6.40;2.53;;;;;;;;;;5069649;28;20031;-66
2021/01/20 11:27:25;;;;;;;2.53;1.55;;;;;;;;;;5071124;28;20266;-66
2021/01/20 11:29:50;;;;;;;2.42;1.35;;;;;;;;;;5072830;28;20066;-66
2021/01/20 11:32:16;;;;;;;6.13;2.83;;;;;;;;;;5073472;28;20021;-67
2021/01/20 11:34:41;;;;;;;9.95;2.60;;;;;;;;;;5070820;28;20271;-66
2021/01/20 11:37:07;;;;;;;3.05;1.75;;;;;;;;;;5072719;28;20499;-66
2021/01/20 11:39:33;;;;;;;6.25;2.13;;;;;;;;;;5072551;28;20017;-66
2021/01/20 11:41:58;;;;;;;2.33;1.52;;;;;;;;;;5072739;28;20485;-66
2021/01/20 11:44:23;;;;;;;5.28;2.67;;;;;;;;;;5069667;28;20055;-66
2021/01/20 11:46:49;;;;;;;5.32;2.63;;;;;;;;;;5066540;28;20023;-67
2021/01/20 11:49:14;;;;;;;5.70;2.13;;;;;;;;;;5069309;28;20100;-67
2021/01/20 11:51:42;;;;;;;6.15;1.90;;;;;;;;;;5065637;28;20024;-65
2021/01/20 11:54:07;;;;;;;4.70;2.58;;;;;;;;;;5072221;28;20015;-66
2021/01/20 11:56:32;;;;;;;5.80;2.70;;;;;;;;;;5069620;28;20107;-66
2021/01/20 11:58:57;;;;;;;3.53;1.83;;;;;;;;;;5071163;28;20340;-66
2021/01/20 12:01:22;;;;;;;3.85;1.90;;;;;;;;;;5064232;28;20299;-66
2021/01/20 12:03:49;;;;;;;6.70;2.30;;;;;;;;;;5082128;28;20060;-66
2021/01/20 12:06:14;;;;;;;4.88;2.33;;;;;;;;;;5069120;28;20087;-67
2021/01/20 12:08:39;;;;;;;5.93;2.78;;;;;;;;;;5070895;28;20130;-67
2021/01/20 12:11:04;;;;;;;7.28;2.70;;;;;;;;;;5071541;28;20024;-67
2021/01/20 12:13:29;;;;;;;3.63;1.93;;;;;;;;;;5072091;28;20043;-67
2021/01/20 12:15:54;;;;;;;8.70;2.20;;;;;;;;;;5069551;28;20267;-67
2021/01/20 12:18:20;;;;;;;6.35;1.92;;;;;;;;;;5071228;28;20665;-65
2021/01/20 12:20:45;;;;;;;7.43;2.93;;;;;;;;;;5079798;28;20056;-67
2021/01/20 12:23:10;;;;;;;3.40;1.40;;;;;;;;;;5078684;28;20282;-66
2021/01/20 12:25:35;;;;;;;6.88;2.25;;;;;;;;;;5068304;28;20271;-66
2021/01/20 12:28:00;;;;;;;4.03;1.87;;;;;;;;;;5069027;28;20032;-65
2021/01/20 12:30:25;;;;;;;9.30;1.57;;;;;;;;;;5071580;28;20266;-65
2021/01/20 12:32:51;;;;;;;4.55;1.98;;;;;;;;;;5071201;28;20270;-63
2021/01/20 12:35:16;;;;;;;3.08;2.20;;;;;;;;;;5070956;28;20020;-64
2021/01/20 12:37:41;;;;;;;4.78;1.95;;;;;;;;;;5068168;28;20020;-63
2021/01/20 12:40:07;;;;;;;5.80;3.00;;;;;;;;;;5068447;28;20052;-64
2021/01/20 12:42:32;;;;;;;3.17;1.42;;;;;;;;;;5071672;28;20262;-64
2021/01/20 12:44:57;;;;;;;8.50;2.33;;;;;;;;;;5067548;28;20024;-64
2021/01/20 12:47:23;;;;;;;3.97;2.27;;;;;;;;;;5071813;28;20303;-64
2021/01/20 12:49:48;;;;;;;3.30;1.60;;;;;;;;;;5077877;28;20336;-64
2021/01/20 12:52:13;;;;;;;5.63;2.35;;;;;;;;;;5070556;28;20028;-64
2021/01/20 12:54:38;;;;;;;5.57;2.10;;;;;;;;;;5070127;28;20112;-65
2021/01/20 12:57:04;;;;;;;2.88;1.73;;;;;;;;;;5071063;28;20056;-63
2021/01/20 12:59:29;;;;;;;3.03;1.88;;;;;;;;;;5071060;28;20350;-65
2021/01/20 13:01:54;;;;;;;3.77;1.43;;;;;;;;;;5070343;28;20528;-63
2021/01/20 13:04:19;;;;;;;6.93;2.37;;;;;;;;;;5070502;28;20263;-65
2021/01/20 13:06:45;;;;;;;4.60;1.48;;;;;;;;;;5069670;28;20893;-63
2021/01/20 13:09:10;;;;;;;5.55;2.90;;;;;;;;;;5070786;28;20056;-63
2021/01/20 13:11:35;;;;;;;5.80;2.53;;;;;;;;;;5070807;28;20024;-65
2021/01/20 13:14:01;;;;;;;3.90;1.95;;;;;;;;;;5071399;28;20299;-63
2021/01/20 13:16:26;;;;;;;9.03;2.67;;;;;;;;;;5070808;28;20082;-65
2021/01/20 13:18:51;;;;;;;5.73;1.50;;;;;;;;;;5070489;28;20291;-63
2021/01/20 13:21:16;;;;;;;5.63;2.80;;;;;;;;;;5070755;28;20273;-64
2021/01/20 13:23:41;;;;;;;4.80;2.22;;;;;;;;;;5071042;28;20346;-64
2021/01/20 13:26:07;;;;;;;4.18;2.47;;;;;;;;;;5069681;28;20052;-64
2021/01/20 13:28:32;;;;;;;7.65;2.70;;;;;;;;;;5093737;22;20047;-68
2021/01/20 13:30:57;;;;;;;5.10;2.83;;;;;;;;;;5069615;28;20068;-68
2021/01/20 13:33:23;;;;;;;6.22;2.05;;;;;;;;;;5061051;28;20264;-68
2021/01/20 13:35:48;;;;;;;7.72;3.50;;;;;;;;;;5069259;28;20019;-68
2021/01/20 13:38:13;;;;;;;7.17;3.03;;;;;;;;;;5069889;28;20036;-67
2021/01/20 13:40:38;;;;;;;5.97;1.57;;;;;;;;;;5092121;28;20270;-68
2021/01/20 13:43:04;;;;;;;5.93;1.67;;;;;;;;;;5091125;28;20297;-68
2021/01/20 13:45:29;;;;;;;6.38;2.83;;;;;;;;;;5087627;28;20107;-67
2021/01/20 13:47:54;;;;;;;5.38;2.05;;;;;;;;;;5088807;28;20027;-68
2021/01/20 13:50:19;;;;;;;4.65;2.08;;;;;;;;;;5086602;28;20020;-68
2021/01/20 13:52:44;;;;;;;7.47;1.80;;;;;;;;;;5088189;28;20066;-65
2021/01/20 13:55:10;;;;;;;5.50;2.25;;;;;;;;;;5086311;28;20032;-68
2021/01/20 13:57:35;;;;;;;2.83;1.77;;;;;;;;;;5087286;28;20500;-68
2021/01/20 14:00:03;;;;;;;6.20;2.03;;;;;;;;;;5087088;28;20042;-67
2021/01/20 14:02:28;;;;;;;7.45;1.98;;;;;;;;;;5087430;28;20369;-68
2021/01/20 14:04:53;;;;;;;3.30;2.20;;;;;;;;;;5087922;28;20031;-67
2021/01/20 14:07:18;;;;;;;3.08;1.42;;;;;;;;;;5087886;28;20285;-67
2021/01/20 14:09:43;;;;;;;5.53;3.38;;;;;;;;;;5087586;28;20024;-67
2021/01/20 14:12:09;;;;;;;5.00;2.50;;;;;;;;;;5088018;28;20422;-67
2021/01/20 14:14:35;;;;;;;2.97;1.23;;;;;;;;;;5087734;28;20458;-66
2021/01/20 14:17:00;;;;;;;11.80;3.30;;;;;;;;;;5086774;28;20028;-67
2021/01/20 14:19:25;;;;;;;5.93;1.70;;;;;;;;;;5063499;28;20044;-67
2021/01/20 14:21:50;;;;;;;6.88;2.40;;;;;;;;;;5089831;28;20028;-67
2021/01/20 14:24:19;;;;;;;5.68;2.22;;;;;;;;;;5087806;28;20353;-67
2021/01/20 14:26:47;;;;;;;8.88;2.35;;;;;;;;;;5087834;28;20036;-67
2021/01/20 14:29:12;;;;;;;6.85;2.88;;;;;;;;;;5089030;28;20024;-67
2021/01/20 14:31:37;;;;;;;7.10;2.72;;;;;;;;;;5088530;28;20434;-67
2021/01/20 14:34:02;;;;;;;6.15;2.20;;;;;;;;;;5088381;28;20104;-67
2021/01/20 14:36:29;;;;;;;6.07;2.67;;;;;;;;;;5089064;28;20716;-66
2021/01/20 14:38:54;;;;;;;7.57;3.47;;;;;;;;;;5091578;28;20281;-67